PWSweather.com
Personal Weather Stations
Station Observations
PARE361
Paremoremo, AucklandNZ

ParemoremoAucklandNZ

Lat: -36.7575, Lon: 174.665

Elevation: 276

Station Type: La Crosse WS2355

Latest ConditionsUpdated 8:00:05 PM GMT+12:12 Sunday, Apr 23, 2017
Currently Today's Max Today's Min Today's Average
Temperature 59.9°F15.5°C 67.8°F19.9°C 56.1°F13.4°C 61.1°F16.2°C
Dew Point 55.1°F12.8°C 59.8°F15.4°C 52.9°F11.6°C 56.1°F13.4°C
Winds Calm Calm 9.2 mph SSE14.8 kmh SSE - 1.8 mph 2.9 kmh
Wind Gusts 6.9 mph11.1 kmh 17.0 mph27.4 kmh - -
Humidity 84% 91% 73% 84%
Pressure 30.10 in1019.3 mb 30.34 in1027.4 mb 30.10 in1019.3 mb -
Hour Temp Dew Point Humidity Winds Wind Gusts Pressure Precip Precip Rate Daily Precip Total
08:00 PM 59.9°F15.5°C 55.1°F12.8°C 84% Calm Calm 6.9 mph11.1 kmh 30.10 in1019.3 mb 0.00 in0.0 mm 0.00 in0.0 mm 0.00 in0.0 mm
07:45 PM 60.1°F15.6°C 55.2°F12.9°C 84% 1.6 mph S2.6 kmh S 6.7 mph10.8 kmh 30.10 in1019.3 mb 0.00 in0.0 mm 0.00 in0.0 mm 0.00 in0.0 mm
07:30 PM 60.4°F15.8°C 55.6°F13.1°C 84% 2.0 mph S3.2 kmh S 5.8 mph9.3 kmh 30.10 in1019.3 mb 0.00 in0.0 mm 0.00 in0.0 mm 0.00 in0.0 mm
07:15 PM 60.4°F15.8°C 55.3°F12.9°C 83% 2.9 mph S4.7 kmh S 5.4 mph8.7 kmh 30.10 in1019.3 mb 0.00 in0.0 mm 0.00 in0.0 mm 0.00 in0.0 mm
07:00 PM 60.6°F15.9°C 55.4°F13.0°C 83% 2.9 mph S4.7 kmh S 7.6 mph12.2 kmh 30.10 in1019.3 mb 0.00 in0.0 mm 0.00 in0.0 mm 0.00 in0.0 mm
06:48 PM 60.8°F16.0°C 55.3°F12.9°C 82% 2.2 mph S3.5 kmh S 4.5 mph7.2 kmh 30.11 in1019.6 mb 0.00 in0.0 mm 0.00 in0.0 mm 0.00 in0.0 mm
06:45 PM 60.6°F15.9°C 55.1°F12.8°C 82% 2.9 mph S4.7 kmh S 6.3 mph10.1 kmh 30.11 in1019.6 mb 0.00 in0.0 mm 0.00 in0.0 mm 0.00 in0.0 mm
06:30 PM 61.0°F16.1°C 55.4°F13.0°C 82% Calm Calm 6.9 mph11.1 kmh 30.10 in1019.3 mb 0.00 in0.0 mm 0.00 in0.0 mm 0.00 in0.0 mm
06:15 PM 61.3°F16.3°C 55.5°F13.1°C 81% 2.5 mph S4.0 kmh S 8.7 mph14.0 kmh 30.11 in1019.6 mb 0.00 in0.0 mm 0.00 in0.0 mm 0.00 in0.0 mm
06:00 PM 61.9°F16.6°C 56.0°F13.3°C 81% 0.7 mph S1.1 kmh S 8.5 mph13.7 kmh 30.11 in1019.6 mb 0.00 in0.0 mm 0.00 in0.0 mm 0.00 in0.0 mm
05:45 PM 62.4°F16.9°C 56.2°F13.4°C 80% 1.8 mph S2.9 kmh S 6.9 mph11.1 kmh 30.11 in1019.6 mb 0.00 in0.0 mm 0.00 in0.0 mm 0.00 in0.0 mm
05:30 PM 63.0°F17.2°C 56.3°F13.5°C 79% 1.3 mph S2.1 kmh S 6.3 mph10.1 kmh 30.11 in1019.6 mb 0.00 in0.0 mm 0.00 in0.0 mm 0.00 in0.0 mm
05:15 PM 63.3°F17.4°C 56.7°F13.7°C 79% 0.9 mph SSE1.4 kmh SSE 5.6 mph9.0 kmh 30.11 in1019.6 mb 0.00 in0.0 mm 0.00 in0.0 mm 0.00 in0.0 mm
05:00 PM 63.7°F17.6°C 56.7°F13.7°C 78% 0.9 mph SSE1.4 kmh SSE 6.9 mph11.1 kmh 30.12 in1020.0 mb 0.00 in0.0 mm 0.00 in0.0 mm 0.00 in0.0 mm
04:45 PM 64.0°F17.8°C 57.0°F13.9°C 78% 1.1 mph S1.8 kmh S 8.7 mph14.0 kmh 30.12 in1020.0 mb 0.00 in0.0 mm 0.00 in0.0 mm 0.00 in0.0 mm
04:30 PM 64.2°F17.9°C 57.2°F14.0°C 78% 3.8 mph S6.1 kmh S 8.9 mph14.3 kmh 30.12 in1020.0 mb 0.00 in0.0 mm 0.00 in0.0 mm 0.00 in0.0 mm
04:15 PM 64.6°F18.1°C 57.2°F14.0°C 77% Calm Calm 9.8 mph15.8 kmh 30.12 in1020.0 mb 0.00 in0.0 mm 0.00 in0.0 mm 0.00 in0.0 mm
04:00 PM 64.9°F18.3°C 57.2°F14.0°C 76% 5.1 mph SSE8.2 kmh SSE 8.9 mph14.3 kmh 30.13 in1020.3 mb 0.00 in0.0 mm 0.00 in0.0 mm 0.00 in0.0 mm
03:45 PM 65.5°F18.6°C 57.7°F14.3°C 76% 3.1 mph SSE5.0 kmh SSE 8.3 mph13.4 kmh 30.13 in1020.3 mb 0.00 in0.0 mm 0.00 in0.0 mm 0.00 in0.0 mm
03:30 PM 65.7°F18.7°C 57.9°F14.4°C 76% 1.6 mph S2.6 kmh S 8.1 mph13.0 kmh 30.13 in1020.3 mb 0.00 in0.0 mm 0.00 in0.0 mm 0.00 in0.0 mm
03:15 PM 66.0°F18.9°C 57.9°F14.4°C 75% 0.7 mph SE1.1 kmh SE 9.8 mph15.8 kmh 30.13 in1020.3 mb 0.00 in0.0 mm 0.00 in0.0 mm 0.00 in0.0 mm
03:00 PM 66.0°F18.9°C 57.9°F14.4°C 75% 2.5 mph SE4.0 kmh SE 6.0 mph9.7 kmh 30.14 in1020.7 mb 0.00 in0.0 mm 0.00 in0.0 mm 0.00 in0.0 mm
02:45 PM 66.2°F19.0°C 57.7°F14.3°C 74% 0.7 mph SE1.1 kmh SE 8.1 mph13.0 kmh 30.14 in1020.7 mb 0.00 in0.0 mm 0.00 in0.0 mm 0.00 in0.0 mm
02:30 PM 66.4°F19.1°C 57.8°F14.3°C 74% 0.9 mph ESE1.4 kmh ESE 11.6 mph18.7 kmh 30.14 in1020.7 mb 0.00 in0.0 mm 0.00 in0.0 mm 0.00 in0.0 mm
02:15 PM 66.4°F19.1°C 57.8°F14.3°C 74% 2.5 mph SE4.0 kmh SE 8.1 mph13.0 kmh 30.14 in1020.7 mb 0.00 in0.0 mm 0.00 in0.0 mm 0.00 in0.0 mm
02:00 PM 66.9°F19.4°C 58.4°F14.7°C 74% 6.5 mph SE10.5 kmh SE 9.2 mph14.8 kmh 30.15 in1021.0 mb 0.00 in0.0 mm 0.00 in0.0 mm 0.00 in0.0 mm
01:45 PM 67.1°F19.5°C 58.5°F14.7°C 74% 1.6 mph SSE2.6 kmh SSE 7.6 mph12.2 kmh 30.15 in1021.0 mb 0.00 in0.0 mm 0.00 in0.0 mm 0.00 in0.0 mm
01:30 PM 67.6°F19.8°C 58.7°F14.8°C 73% 4.5 mph SE7.2 kmh SE 7.6 mph12.2 kmh 30.16 in1021.3 mb 0.00 in0.0 mm 0.00 in0.0 mm 0.00 in0.0 mm
01:15 PM 67.8°F19.9°C 59.2°F15.1°C 74% 4.0 mph SE6.4 kmh SE 17.0 mph27.4 kmh 30.17 in1021.7 mb 0.00 in0.0 mm 0.00 in0.0 mm 0.00 in0.0 mm
01:00 PM 67.8°F19.9°C 59.2°F15.1°C 74% 1.6 mph SE2.6 kmh SE 10.5 mph16.9 kmh 30.18 in1022.0 mb 0.00 in0.0 mm 0.00 in0.0 mm 0.00 in0.0 mm
12:45 PM 67.8°F19.9°C 59.2°F15.1°C 74% 1.1 mph SE1.8 kmh SE 10.3 mph16.6 kmh 30.18 in1022.0 mb 0.00 in0.0 mm 0.00 in0.0 mm 0.00 in0.0 mm
12:30 PM 67.6°F19.8°C 59.8°F15.4°C 76% Calm Calm 9.6 mph15.4 kmh 30.19 in1022.4 mb 0.00 in0.0 mm 0.00 in0.0 mm 0.00 in0.0 mm
12:15 PM 67.3°F19.6°C 59.8°F15.4°C 77% 1.1 mph SE1.8 kmh SE 9.6 mph15.4 kmh 30.20 in1022.7 mb 0.00 in0.0 mm 0.00 in0.0 mm 0.00 in0.0 mm
12:00 PM 66.7°F19.3°C 59.7°F15.4°C 78% 6.0 mph S9.7 kmh S 14.3 mph23.0 kmh 30.22 in1023.4 mb 0.00 in0.0 mm 0.00 in0.0 mm 0.00 in0.0 mm
11:45 AM 66.6°F19.2°C 59.8°F15.4°C 79% 2.2 mph SE3.5 kmh SE 10.7 mph17.2 kmh 30.22 in1023.4 mb 0.00 in0.0 mm 0.00 in0.0 mm 0.00 in0.0 mm
11:30 AM 65.8°F18.8°C 59.5°F15.3°C 80% 1.8 mph S2.9 kmh S 11.4 mph18.3 kmh 30.23 in1023.7 mb 0.00 in0.0 mm 0.00 in0.0 mm 0.00 in0.0 mm
11:15 AM 65.3°F18.5°C 59.0°F15.0°C 80% 2.2 mph S3.5 kmh S 8.5 mph13.7 kmh 30.24 in1024.0 mb 0.00 in0.0 mm 0.00 in0.0 mm 0.00 in0.0 mm
11:00 AM 64.8°F18.2°C 58.8°F14.9°C 81% 3.8 mph S6.1 kmh S 8.9 mph14.3 kmh 30.25 in1024.4 mb 0.00 in0.0 mm 0.00 in0.0 mm 0.00 in0.0 mm
10:45 AM 64.4°F18.0°C 58.8°F14.9°C 82% 4.9 mph S7.9 kmh S 11.0 mph17.7 kmh 30.25 in1024.4 mb 0.00 in0.0 mm 0.00 in0.0 mm 0.00 in0.0 mm
10:30 AM 64.2°F17.9°C 58.9°F14.9°C 83% 2.0 mph SE3.2 kmh SE 5.4 mph8.7 kmh 30.25 in1024.4 mb 0.00 in0.0 mm 0.00 in0.0 mm 0.00 in0.0 mm
10:15 AM 64.0°F17.8°C 59.4°F15.2°C 85% 9.2 mph SSE14.8 kmh SSE 9.2 mph14.8 kmh 30.26 in1024.7 mb 0.00 in0.0 mm 0.00 in0.0 mm 0.00 in0.0 mm
10:00 AM 62.8°F17.1°C 58.5°F14.7°C 86% 2.5 mph SE4.0 kmh SE 6.0 mph9.7 kmh 30.27 in1025.1 mb 0.00 in0.0 mm 0.00 in0.0 mm 0.00 in0.0 mm
09:45 AM 61.2°F16.2°C 57.6°F14.2°C 88% Calm Calm 4.9 mph7.9 kmh 30.27 in1025.1 mb 0.00 in0.0 mm 0.00 in0.0 mm 0.00 in0.0 mm
09:30 AM 60.4°F15.8°C 56.9°F13.8°C 88% Calm Calm 3.8 mph6.1 kmh 30.28 in1025.4 mb 0.00 in0.0 mm 0.00 in0.0 mm 0.00 in0.0 mm
09:15 AM 59.9°F15.5°C 56.6°F13.7°C 89% Calm Calm 3.6 mph5.8 kmh 30.27 in1025.1 mb 0.00 in0.0 mm 0.00 in0.0 mm 0.00 in0.0 mm
09:00 AM 59.0°F15.0°C 56.1°F13.4°C 90% 3.6 mph S5.8 kmh S 3.6 mph5.8 kmh 30.27 in1025.1 mb 0.00 in0.0 mm 0.00 in0.0 mm 0.00 in0.0 mm
08:45 AM 57.9°F14.4°C 55.0°F12.8°C 90% Calm Calm 4.0 mph6.4 kmh 30.28 in1025.4 mb 0.00 in0.0 mm 0.00 in0.0 mm 0.00 in0.0 mm
08:30 AM 57.4°F14.1°C 54.5°F12.5°C 90% Calm Calm 2.9 mph4.7 kmh 30.29 in1025.7 mb 0.00 in0.0 mm 0.00 in0.0 mm 0.00 in0.0 mm
08:15 AM 56.8°F13.8°C 53.9°F12.2°C 90% Calm Calm 4.5 mph7.2 kmh 30.29 in1025.7 mb 0.00 in0.0 mm 0.00 in0.0 mm 0.00 in0.0 mm
08:00 AM 57.0°F13.9°C 54.1°F12.3°C 90% 4.5 mph S7.2 kmh S 5.1 mph8.2 kmh 30.29 in1025.7 mb 0.00 in0.0 mm 0.00 in0.0 mm 0.00 in0.0 mm
07:45 AM 56.5°F13.6°C 53.6°F12.0°C 90% 2.0 mph S3.2 kmh S 8.9 mph14.3 kmh 30.29 in1025.7 mb 0.00 in0.0 mm 0.00 in0.0 mm 0.00 in0.0 mm
07:30 AM 56.7°F13.7°C 54.1°F12.3°C 91% 1.6 mph S2.6 kmh S 8.1 mph13.0 kmh 30.28 in1025.4 mb 0.00 in0.0 mm 0.00 in0.0 mm 0.00 in0.0 mm
07:15 AM 56.5°F13.6°C 53.9°F12.2°C 91% 2.0 mph S3.2 kmh S 4.7 mph7.6 kmh 30.28 in1025.4 mb 0.00 in0.0 mm 0.00 in0.0 mm 0.00 in0.0 mm
07:00 AM 56.5°F13.6°C 53.9°F12.2°C 91% 2.0 mph S3.2 kmh S 5.1 mph8.2 kmh 30.28 in1025.4 mb 0.00 in0.0 mm 0.00 in0.0 mm 0.00 in0.0 mm
06:45 AM 56.5°F13.6°C 53.9°F12.2°C 91% 1.8 mph S2.9 kmh S 3.4 mph5.5 kmh 30.29 in1025.7 mb 0.00 in0.0 mm 0.00 in0.0 mm 0.00 in0.0 mm
06:30 AM 56.5°F13.6°C 53.9°F12.2°C 91% Calm Calm 3.8 mph6.1 kmh 30.29 in1025.7 mb 0.00 in0.0 mm 0.00 in0.0 mm 0.00 in0.0 mm
06:15 AM 56.3°F13.5°C 53.7°F12.1°C 91% Calm Calm 4.5 mph7.2 kmh 30.29 in1025.7 mb 0.00 in0.0 mm 0.00 in0.0 mm 0.00 in0.0 mm
06:00 AM 56.3°F13.5°C 53.4°F11.9°C 90% 2.2 mph S3.5 kmh S 2.9 mph4.7 kmh 30.29 in1025.7 mb 0.00 in0.0 mm 0.00 in0.0 mm 0.00 in0.0 mm
05:45 AM 56.1°F13.4°C 53.2°F11.8°C 90% 3.6 mph S5.8 kmh S 5.6 mph9.0 kmh 30.29 in1025.7 mb 0.00 in0.0 mm 0.00 in0.0 mm 0.00 in0.0 mm
05:30 AM 56.1°F13.4°C 53.2°F11.8°C 90% Calm Calm 7.2 mph11.6 kmh 30.29 in1025.7 mb 0.00 in0.0 mm 0.00 in0.0 mm 0.00 in0.0 mm
05:15 AM 56.1°F13.4°C 53.2°F11.8°C 90% 1.1 mph S1.8 kmh S 4.0 mph6.4 kmh 30.29 in1025.7 mb 0.00 in0.0 mm 0.00 in0.0 mm 0.00 in0.0 mm
05:00 AM 56.1°F13.4°C 52.9°F11.6°C 89% Calm Calm 4.7 mph7.6 kmh 30.29 in1025.7 mb 0.00 in0.0 mm 0.00 in0.0 mm 0.00 in0.0 mm
04:45 AM 56.3°F13.5°C 53.1°F11.7°C 89% 1.3 mph S2.1 kmh S 4.0 mph6.4 kmh 30.29 in1025.7 mb 0.00 in0.0 mm 0.00 in0.0 mm 0.00 in0.0 mm
04:30 AM 56.7°F13.7°C 53.5°F11.9°C 89% 0.9 mph S1.4 kmh S 6.9 mph11.1 kmh 30.29 in1025.7 mb 0.00 in0.0 mm 0.00 in0.0 mm 0.00 in0.0 mm
04:15 AM 57.0°F13.9°C 53.8°F12.1°C 89% Calm Calm 3.4 mph5.5 kmh 30.29 in1025.7 mb 0.00 in0.0 mm 0.00 in0.0 mm 0.00 in0.0 mm
04:00 AM 57.4°F14.1°C 54.2°F12.3°C 89% Calm Calm 1.1 mph1.8 kmh 30.29 in1025.7 mb 0.00 in0.0 mm 0.00 in0.0 mm 0.00 in0.0 mm
03:45 AM 57.4°F14.1°C 54.2°F12.3°C 89% Calm Calm 1.1 mph1.8 kmh 30.30 in1026.1 mb 0.00 in0.0 mm 0.00 in0.0 mm 0.00 in0.0 mm
03:30 AM 57.6°F14.2°C 54.3°F12.4°C 89% Calm Calm 1.3 mph2.1 kmh 30.30 in1026.1 mb 0.00 in0.0 mm 0.00 in0.0 mm 0.00 in0.0 mm
03:15 AM 57.6°F14.2°C 54.3°F12.4°C 89% Calm Calm 2.5 mph4.0 kmh 30.30 in1026.1 mb 0.00 in0.0 mm 0.00 in0.0 mm 0.00 in0.0 mm
03:00 AM 57.9°F14.4°C 54.7°F12.6°C 89% Calm Calm 2.5 mph4.0 kmh 30.31 in1026.4 mb 0.00 in0.0 mm 0.00 in0.0 mm 0.00 in0.0 mm
02:45 AM 57.9°F14.4°C 54.7°F12.6°C 89% 0.9 mph SSW1.4 kmh SSW 3.8 mph6.1 kmh 30.31 in1026.4 mb 0.00 in0.0 mm 0.00 in0.0 mm 0.00 in0.0 mm
02:30 AM 58.1°F14.5°C 54.9°F12.7°C 89% 2.7 mph S4.3 kmh S 2.9 mph4.7 kmh 30.32 in1026.8 mb 0.00 in0.0 mm 0.00 in0.0 mm 0.00 in0.0 mm
02:15 AM 58.1°F14.5°C 54.9°F12.7°C 89% 1.6 mph S2.6 kmh S 2.0 mph3.2 kmh 30.32 in1026.8 mb 0.00 in0.0 mm 0.00 in0.0 mm 0.00 in0.0 mm
02:00 AM 58.1°F14.5°C 54.9°F12.7°C 89% Calm Calm 2.7 mph4.3 kmh 30.32 in1026.8 mb 0.00 in0.0 mm 0.00 in0.0 mm 0.00 in0.0 mm
01:45 AM 58.3°F14.6°C 54.7°F12.6°C 88% 2.0 mph S3.2 kmh S 3.6 mph5.8 kmh 30.33 in1027.1 mb 0.00 in0.0 mm 0.00 in0.0 mm 0.00 in0.0 mm
01:30 AM 58.6°F14.8°C 55.1°F12.8°C 88% 2.9 mph SSW4.7 kmh SSW 4.0 mph6.4 kmh 30.33 in1027.1 mb 0.00 in0.0 mm 0.00 in0.0 mm 0.00 in0.0 mm
01:15 AM 58.8°F14.9°C 55.3°F12.9°C 88% 2.0 mph SSW3.2 kmh SSW 3.4 mph5.5 kmh 30.33 in1027.1 mb 0.00 in0.0 mm 0.00 in0.0 mm 0.00 in0.0 mm
01:00 AM 59.0°F15.0°C 55.1°F12.8°C 87% 1.6 mph SSW2.6 kmh SSW 3.1 mph5.0 kmh 30.33 in1027.1 mb 0.00 in0.0 mm 0.00 in0.0 mm 0.00 in0.0 mm
12:45 AM 59.2°F15.1°C 55.3°F12.9°C 87% 2.5 mph SSW4.0 kmh SSW 2.5 mph4.0 kmh 30.33 in1027.1 mb 0.00 in0.0 mm 0.00 in0.0 mm 0.00 in0.0 mm
12:30 AM 59.4°F15.2°C 55.5°F13.1°C 87% 2.5 mph S4.0 kmh S 2.5 mph4.0 kmh 30.34 in1027.4 mb 0.00 in0.0 mm 0.00 in0.0 mm 0.00 in0.0 mm
12:15 AM 59.5°F15.3°C 55.7°F13.2°C 87% Calm Calm 2.2 mph3.5 kmh 30.34 in1027.4 mb 0.00 in0.0 mm 0.00 in0.0 mm 0.00 in0.0 mm
12:00 AM 59.7°F15.4°C 55.8°F13.2°C 87% Calm Calm -- 30.34 in1027.4 mb 0.00 in0.0 mm 0.00 in0.0 mm 0.00 in0.0 mm